Time;durP1;ratioP1;P1;durP2;ratioP2;P2;SDS_P1;SDS_P2;PMS_P1;PMS_P2;Temp;Humidity;BMP_temperature;BMP_pressure;BME280_temperature;BME280_humidity;BME280_pressure;Samples;Min_cycle;Max_cycle;Signal;HPM_P1;HPM_P2
2023/01/28 00:01:11;;;;;;;12.63;10.65;;;2.30;1.00;;;;;;5090546;27;20087;-92
2023/01/28 00:03:37;;;;;;;12.88;10.32;;;2.20;43.80;;;;;;5084546;27;20042;-92
2023/01/28 00:06:12;;;;;;;13.00;10.73;;;2.20;1.00;;;;;;5100024;27;20047;-92
2023/01/28 00:08:38;;;;;;;13.52;10.57;;;2.20;1.00;;;;;;5090106;27;20042;-91
2023/01/28 00:11:05;;;;;;;12.68;10.73;;;2.20;1.00;;;;;;5089427;27;20047;-92
2023/01/28 00:13:32;;;;;;;12.52;10.75;;;2.20;92.20;;;;;;5100220;27;20053;-92
2023/01/28 00:15:59;;;;;;;15.82;12.07;;;2.10;44.10;;;;;;5087051;27;20085;-91
2023/01/28 00:18:26;;;;;;;13.32;11.32;;;2.10;99.70;;;;;;5104343;27;20047;-91
2023/01/28 00:20:59;;;;;;;14.35;12.00;;;2.10;99.90;;;;;;5116167;27;21540;-92
2023/01/28 00:23:30;;;;;;;16.20;12.07;;;2.10;94.30;;;;;;5083076;27;20599;-91
2023/01/28 00:26:02;;;;;;;13.90;11.20;;;2.10;72.40;;;;;;5100880;27;20043;-92
2023/01/28 00:28:28;;;;;;;11.57;9.73;;;2.10;1.00;;;;;;5102060;27;20104;-92
2023/01/28 00:30:53;;;;;;;11.65;10.07;;;2.10;99.90;;;;;;5100685;27;20548;-91
2023/01/28 00:33:20;;;;;;;13.27;10.30;;;2.00;99.90;;;;;;5101516;27;20035;-92
2023/01/28 00:35:45;;;;;;;12.52;9.90;;;2.00;99.90;;;;;;5085183;27;20342;-91
2023/01/28 00:38:11;;;;;;;11.68;9.55;;;2.00;99.90;;;;;;5084865;28;20845;-92
2023/01/28 00:40:37;;;;;;;13.23;9.32;;;2.00;99.90;;;;;;5098568;27;20479;-91
2023/01/28 00:43:03;;;;;;;12.32;9.98;;;2.10;99.90;;;;;;5081245;27;20118;-92
2023/01/28 00:45:29;;;;;;;12.75;10.00;;;2.10;1.00;;;;;;5087910;27;20043;-92
2023/01/28 00:47:54;;;;;;;13.45;10.27;;;2.10;1.00;;;;;;5101042;27;20108;-92
2023/01/28 00:50:20;;;;;;;12.70;9.95;;;2.10;1.00;;;;;;5085859;27;20039;-92
2023/01/28 00:52:47;;;;;;;12.50;9.80;;;2.10;1.00;;;;;;5098118;27;20042;-92
2023/01/28 00:55:16;;;;;;;13.32;9.70;;;2.10;1.00;;;;;;5097760;27;20079;-92
2023/01/28 00:57:42;;;;;;;11.57;9.32;;;2.10;1.00;;;;;;5090144;27;20040;-92
2023/01/28 01:00:08;;;;;;;10.57;9.00;;;2.10;1.00;;;;;;5086576;27;20100;-92
2023/01/28 01:02:34;;;;;;;12.07;8.52;;;2.10;1.00;;;;;;5102241;27;20104;-91
2023/01/28 01:05:00;;;;;;;10.25;8.77;;;2.00;1.00;;;;;;5100885;27;20035;-92
2023/01/28 01:07:40;;;;;;;9.75;7.88;;;2.00;99.90;;;;;;5083427;27;20103;-92
2023/01/28 01:10:10;;;;;;;9.85;7.95;;;2.10;99.90;;;;;;5082835;27;20130;-92
2023/01/28 01:12:36;;;;;;;9.55;7.97;;;2.10;99.90;;;;;;5108045;27;20254;-92
2023/01/28 01:15:02;;;;;;;10.40;8.25;;;2.00;99.90;;;;;;5081635;27;20039;-92
2023/01/28 01:17:31;;;;;;;11.10;7.93;;;2.10;99.90;;;;;;5084665;27;20303;-92
2023/01/28 01:19:57;;;;;;;10.05;8.55;;;2.10;1.00;;;;;;5102777;27;20217;-92
2023/01/28 01:22:22;;;;;;;11.68;8.35;;;2.10;99.90;;;;;;5096844;27;20130;-91
2023/01/28 01:24:51;;;;;;;12.25;8.63;;;2.10;99.90;;;;;;5101656;27;20374;-91
2023/01/28 01:27:17;;;;;;;11.20;9.30;;;2.00;99.90;;;;;;5091746;27;20031;-92
2023/01/28 01:29:42;;;;;;;13.05;8.88;;;2.00;99.90;;;;;;5084305;27;20039;-92
2023/01/28 01:32:11;;;;;;;12.10;8.18;;;2.00;1.00;;;;;;5087042;27;20096;-92
2023/01/28 01:34:36;;;;;;;10.30;8.57;;;2.00;1.00;;;;;;5102450;27;20038;-92
2023/01/28 01:37:05;;;;;;;11.18;8.93;;;2.00;1.00;;;;;;5088173;27;20034;-92
2023/01/28 01:39:30;;;;;;;11.43;8.52;;;2.00;99.90;;;;;;5092793;27;20583;-92
2023/01/28 01:41:56;;;;;;;11.65;8.98;;;2.00;99.90;;;;;;5106800;27;20040;-91
2023/01/28 01:44:58;;;;;;;14.23;8.77;;;2.00;99.90;;;;;;5106617;27;20397;-92
2023/01/28 01:47:32;;;;;;;11.05;8.90;;;2.10;99.90;;;;;;5095775;27;20105;-91
2023/01/28 01:50:00;;;;;;;12.32;9.35;;;2.00;99.90;;;;;;5106489;27;20053;-91
2023/01/28 01:52:32;;;;;;;11.23;8.77;;;2.00;99.90;;;;;;5082960;27;20569;-92
2023/01/28 01:55:00;;;;;;;12.85;9.30;;;2.10;99.90;;;;;;5091059;28;20049;-92
2023/01/28 01:57:31;;;;;;;10.32;8.88;;;2.10;99.90;;;;;;5083473;28;20182;-92
2023/01/28 02:00:04;;;;;;;12.80;9.75;;;2.00;99.90;;;;;;5085317;28;20465;-92
2023/01/28 02:02:38;;;;;;;10.53;8.03;;;2.00;99.90;;;;;;5086778;27;20039;-92
2023/01/28 02:05:09;;;;;;;9.52;7.82;;;2.00;14.90;;;;;;5104567;27;20285;-92
2023/01/28 02:07:38;;;;;;;9.57;7.63;;;2.00;62.60;;;;;;5092229;27;20121;-90
2023/01/28 02:10:06;;;;;;;7.38;6.30;;;2.00;1.00;;;;;;5088928;28;20237;-92
2023/01/28 02:12:46;;;;;;;7.22;5.90;;;2.00;1.00;;;;;;5094428;28;20101;-91
2023/01/28 02:15:20;;;;;;;7.28;6.03;;;2.00;99.90;;;;;;5100588;28;20121;-92
2023/01/28 02:17:48;;;;;;;8.35;7.03;;;2.00;8.80;;;;;;5096969;28;20043;-92
2023/01/28 02:20:45;;;;;;;8.63;6.43;;;2.00;15.50;;;;;;5096285;28;20114;-91
2023/01/28 02:23:45;;;;;;;9.50;6.93;;;2.00;1.00;;;;;;5089839;28;20118;-91
2023/01/28 02:26:48;;;;;;;7.22;5.93;;;2.00;9.10;;;;;;5085719;28;20345;-92
2023/01/28 02:29:25;;;;;;;8.35;5.75;;;2.00;99.90;;;;;;5103567;28;20043;-92
2023/01/28 02:32:17;;;;;;;7.90;6.05;;;2.00;99.90;;;;;;5103116;28;20087;-91
2023/01/28 02:34:56;;;;;;;8.40;6.45;;;2.00;99.90;;;;;;5110583;28;20402;-91
2023/01/28 02:37:32;;;;;;;6.32;5.72;;;2.00;99.90;;;;;;5082551;28;20051;-92
2023/01/28 02:40:23;;;;;;;7.82;5.68;;;2.00;99.90;;;;;;5100727;28;20126;-92
2023/01/28 02:42:50;;;;;;;9.75;5.55;;;2.00;99.90;;;;;;5098716;27;20083;-92
2023/01/28 02:45:24;;;;;;;5.90;4.93;;;1.90;99.90;;;;;;5099261;28;20104;-92
2023/01/28 02:47:57;;;;;;;6.55;4.75;;;1.90;99.90;;;;;;5087609;28;20051;-92
2023/01/28 02:50:24;;;;;;;5.75;4.03;;;2.00;1.00;;;;;;5099571;28;20046;-92
2023/01/28 02:56:18;;;;;;;5.10;3.85;;;2.00;1.00;;;;;;5117371;28;20074;-92
2023/01/28 02:58:55;;;;;;;5.95;4.15;;;2.00;1.00;;;;;;5091563;28;20051;-92
2023/01/28 03:01:41;;;;;;;4.65;4.18;;;2.00;1.00;;;;;;5089175;28;20053;-92
2023/01/28 03:04:17;;;;;;;5.43;4.53;;;2.00;59.90;;;;;;5099498;27;20043;-91
2023/01/28 03:06:48;;;;;;;5.25;4.70;;;2.00;1.00;;;;;;5102777;27;20112;-92
2023/01/28 03:09:25;;;;;;;5.35;4.85;;;2.00;73.00;;;;;;5088726;27;20039;-92
2023/01/28 03:37:16;;;;;;;5.80;4.22;;;2.00;1.00;;;;;;5105207;27;20120;-92
2023/01/28 03:39:42;;;;;;;6.00;4.72;;;2.00;1.00;;;;;;5094719;27;20135;-92
2023/01/28 03:42:13;;;;;;;7.10;5.18;;;2.00;1.00;;;;;;5102587;27;20351;-92
2023/01/28 03:44:51;;;;;;;7.38;5.50;;;2.00;99.90;;;;;;5115333;27;20054;-92
2023/01/28 03:47:25;;;;;;;8.23;4.60;;;2.00;99.90;;;;;;5108202;27;20063;-92
2023/01/28 03:49:55;;;;;;;6.70;4.93;;;2.00;99.90;;;;;;5106494;27;20046;-92
2023/01/28 03:52:24;;;;;;;6.47;4.72;;;2.00;99.90;;;;;;5122339;27;20208;-91
2023/01/28 03:54:51;;;;;;;5.60;4.93;;;2.00;99.90;;;;;;5107618;27;20103;-92
2023/01/28 03:57:23;;;;;;;6.55;5.30;;;2.00;99.90;;;;;;5108683;27;20123;-92
2023/01/28 03:59:51;;;;;;;6.20;4.82;;;2.00;99.90;;;;;;5107074;27;20486;-92
2023/01/28 04:02:19;;;;;;;5.13;4.45;;;2.00;99.90;;;;;;5095475;27;20027;-92
2023/01/28 04:04:44;;;;;;;6.38;4.80;;;2.00;99.90;;;;;;5091698;27;20035;-92
2023/01/28 04:07:14;;;;;;;5.68;5.07;;;1.90;1.00;;;;;;5092154;27;20122;-92
2023/01/28 04:09:40;;;;;;;7.10;4.97;;;1.90;1.00;;;;;;5107499;27;20080;-92
2023/01/28 04:12:06;;;;;;;5.88;4.93;;;2.00;1.00;;;;;;5106653;27;20031;-92
2023/01/28 04:14:32;;;;;;;6.38;5.22;;;1.90;1.00;;;;;;5090790;27;20107;-92
2023/01/28 04:16:58;;;;;;;6.45;5.50;;;1.90;1.00;;;;;;5095037;27;20039;-92
2023/01/28 04:19:24;;;;;;;9.27;5.45;;;1.90;31.70;;;;;;5091478;27;20039;-91
2023/01/28 04:21:52;;;;;;;6.95;5.70;;;1.90;34.80;;;;;;5090572;27;20419;-92
2023/01/28 04:24:19;;;;;;;7.65;5.72;;;1.90;63.80;;;;;;5089899;27;20106;-92
2023/01/28 04:26:44;;;;;;;6.28;5.60;;;1.90;82.60;;;;;;5091654;27;20054;-91
2023/01/28 04:29:10;;;;;;;7.28;5.45;;;1.90;99.90;;;;;;5106260;27;20035;-92
2023/01/28 04:31:36;;;;;;;6.53;5.25;;;1.90;99.90;;;;;;5111153;27;20324;-91
2023/01/28 04:34:01;;;;;;;5.63;4.85;;;1.90;48.80;;;;;;5108256;27;20031;-91
2023/01/28 04:36:27;;;;;;;6.38;4.97;;;1.90;26.50;;;;;;5109385;27;20354;-92
2023/01/28 04:38:53;;;;;;;5.70;4.88;;;1.90;91.20;;;;;;5097406;28;20058;-92
2023/01/28 04:41:22;;;;;;;5.90;4.95;;;1.90;99.90;;;;;;5087833;27;20035;-91
2023/01/28 04:43:48;;;;;;;5.63;5.03;;;1.90;99.90;;;;;;5105869;27;20143;-92
2023/01/28 04:46:14;;;;;;;6.63;5.30;;;1.80;99.90;;;;;;5108634;27;20581;-92
2023/01/28 04:48:43;;;;;;;6.55;5.07;;;1.80;99.90;;;;;;5109047;27;20050;-92
2023/01/28 04:51:09;;;;;;;7.55;5.07;;;1.80;99.90;;;;;;5098973;27;20035;-92
2023/01/28 04:53:34;;;;;;;5.60;5.00;;;1.80;99.90;;;;;;5102552;27;20053;-92
2023/01/28 04:56:00;;;;;;;9.25;5.57;;;1.90;99.90;;;;;;5107047;27;20490;-92
2023/01/28 04:58:26;;;;;;;8.35;5.82;;;1.90;99.90;;;;;;5107041;27;20042;-92
2023/01/28 05:00:56;;;;;;;7.70;5.30;;;1.90;99.90;;;;;;5100819;27;20109;-92
2023/01/28 05:03:22;;;;;;;5.60;4.97;;;1.90;99.90;;;;;;5094110;27;20031;-91
2023/01/28 05:05:48;;;;;;;7.00;4.88;;;1.90;64.50;;;;;;5106328;27;20031;-92
2023/01/28 05:08:14;;;;;;;6.38;5.05;;;1.90;99.90;;;;;;5101694;27;20585;-92
2023/01/28 05:10:40;;;;;;;7.53;5.40;;;1.80;99.90;;;;;;5106591;27;20090;-92
2023/01/28 05:13:05;;;;;;;6.38;5.13;;;1.80;99.90;;;;;;5088006;27;20054;-92
2023/01/28 05:15:31;;;;;;;7.13;5.38;;;1.80;99.90;;;;;;5091311;27;20039;-91
2023/01/28 05:17:57;;;;;;;6.28;5.22;;;1.80;99.90;;;;;;5091056;27;20046;-92
2023/01/28 05:20:23;;;;;;;7.10;5.53;;;1.80;99.90;;;;;;5105729;27;20489;-92
2023/01/28 05:22:48;;;;;;;6.63;5.65;;;1.80;99.90;;;;;;5093651;27;20031;-92
2023/01/28 05:25:14;;;;;;;6.50;5.72;;;1.80;30.30;;;;;;5105004;27;20035;-92
2023/01/28 05:27:40;;;;;;;7.32;5.90;;;1.80;7.00;;;;;;5106422;27;20062;-92
2023/01/28 05:30:07;;;;;;;7.22;6.40;;;1.90;1.00;;;;;;5106537;27;20197;-92
2023/01/28 05:32:35;;;;;;;7.65;6.22;;;1.90;7.80;;;;;;5107753;27;20089;-92
2023/01/28 05:35:01;;;;;;;9.95;6.50;;;1.80;14.90;;;;;;5124355;27;20035;-92
2023/01/28 05:37:27;;;;;;;8.18;6.72;;;1.80;56.50;;;;;;5105186;27;20050;-92
2023/01/28 05:39:53;;;;;;;8.93;7.13;;;1.80;33.80;;;;;;5099793;28;20044;-93
2023/01/28 05:42:19;;;;;;;7.85;6.53;;;1.80;22.40;;;;;;5100895;28;20043;-92
2023/01/28 05:44:45;;;;;;;8.52;7.03;;;1.80;17.80;;;;;;5088472;28;20031;-92
2023/01/28 05:47:11;;;;;;;7.20;6.50;;;1.80;54.30;;;;;;5105756;28;20035;-92
2023/01/28 05:49:36;;;;;;;8.02;6.40;;;1.70;42.80;;;;;;5103048;28;20032;-92
2023/01/28 05:52:02;;;;;;;9.02;6.93;;;1.70;63.80;;;;;;5084154;28;20043;-92
2023/01/28 05:54:29;;;;;;;8.82;7.53;;;1.80;90.50;;;;;;5080846;28;20545;-92
2023/01/28 05:56:54;;;;;;;9.73;7.13;;;1.80;95.50;;;;;;5085825;28;20039;-92
2023/01/28 05:59:20;;;;;;;11.43;8.43;;;1.80;75.10;;;;;;5100323;28;20039;-93
2023/01/28 06:01:46;;;;;;;10.65;7.60;;;1.80;43.80;;;;;;5089007;28;20070;-92
2023/01/28 06:04:11;;;;;;;11.20;7.70;;;1.80;94.40;;;;;;5106819;28;20040;-92
2023/01/28 06:06:37;;;;;;;11.95;7.93;;;1.80;99.90;;;;;;5104160;28;20488;-92
2023/01/28 06:09:03;;;;;;;9.57;7.80;;;1.80;99.90;;;;;;5085413;28;20048;-92
2023/01/28 06:11:28;;;;;;;10.90;8.73;;;1.70;99.90;;;;;;5099692;28;20055;-92
2023/01/28 06:13:57;;;;;;;11.15;8.25;;;1.70;99.90;;;;;;5101046;28;20070;-92
2023/01/28 06:16:22;;;;;;;10.68;8.32;;;1.70;99.90;;;;;;5090254;28;20036;-91
2023/01/28 06:18:48;;;;;;;13.48;9.25;;;1.80;99.90;;;;;;5100360;28;20402;-91
2023/01/28 06:21:16;;;;;;;12.38;9.45;;;1.70;99.90;;;;;;5101125;28;21544;-91
2023/01/28 06:23:42;;;;;;;11.63;9.25;;;1.70;99.90;;;;;;5087807;28;20084;-91
2023/01/28 06:26:11;;;;;;;12.80;9.70;;;1.70;99.90;;;;;;5102968;28;20059;-91
2023/01/28 06:28:37;;;;;;;13.55;9.95;;;1.70;99.90;;;;;;5089683;28;20131;-92
2023/01/28 06:31:02;;;;;;;10.15;8.77;;;1.70;99.90;;;;;;5117690;28;20080;-90
2023/01/28 06:33:28;;;;;;;12.75;9.57;;;1.80;99.90;;;;;;5102349;28;20131;-90
2023/01/28 06:35:54;;;;;;;11.98;9.85;;;1.70;99.90;;;;;;5085662;28;20047;-91
2023/01/28 06:38:20;;;;;;;11.50;9.25;;;1.70;99.90;;;;;;5112626;27;20036;-91
2023/01/28 06:40:54;;;;;;;11.98;9.40;;;1.70;99.90;;;;;;5109920;27;20054;-91
2023/01/28 06:43:26;;;;;;;12.07;9.07;;;1.70;99.90;;;;;;5111408;27;20039;-91
2023/01/28 06:45:55;;;;;;;12.32;9.80;;;1.70;99.90;;;;;;5110009;27;20123;-92
2023/01/28 06:48:22;;;;;;;11.02;9.35;;;1.70;99.90;;;;;;5103292;27;20035;-91
2023/01/28 06:50:48;;;;;;;12.52;9.90;;;1.70;99.90;;;;;;5093897;27;20517;-92
2023/01/28 06:53:14;;;;;;;11.68;9.27;;;1.70;99.90;;;;;;5096114;27;20031;-91
2023/01/28 06:55:47;;;;;;;12.57;9.75;;;1.70;99.90;;;;;;5107327;27;20043;-91
2023/01/28 06:58:12;;;;;;;12.25;9.55;;;1.70;99.90;;;;;;5111186;27;20895;-91
2023/01/28 07:00:38;;;;;;;11.32;9.07;;;1.70;99.90;;;;;;5107635;27;20040;-92
2023/01/28 07:03:04;;;;;;;11.25;8.98;;;1.70;99.90;;;;;;5108949;27;20038;-91
2023/01/28 07:05:30;;;;;;;11.98;9.38;;;1.70;99.90;;;;;;5107164;27;20917;-92
2023/01/28 07:07:56;;;;;;;11.98;9.70;;;1.70;99.90;;;;;;5106155;27;20047;-92
2023/01/28 07:10:22;;;;;;;13.32;9.57;;;1.70;99.90;;;;;;5111961;27;20038;-92
2023/01/28 07:12:51;;;;;;;12.77;9.32;;;1.70;99.90;;;;;;5094705;27;20108;-91
2023/01/28 07:15:17;;;;;;;11.70;8.98;;;1.60;99.90;;;;;;5106001;27;20047;-92
2023/01/28 07:17:44;;;;;;;12.43;9.63;;;1.50;99.90;;;;;;5109432;27;20027;-91
2023/01/28 07:20:13;;;;;;;14.95;11.23;;;1.60;99.90;;;;;;5111597;27;20043;-92
2023/01/28 07:22:41;;;;;;;12.70;10.18;;;1.50;99.90;;;;;;5089822;27;20043;-92
2023/01/28 07:25:08;;;;;;;12.68;9.90;;;1.50;99.90;;;;;;5109140;27;20042;-92
2023/01/28 07:27:33;;;;;;;13.60;10.27;;;1.40;99.90;;;;;;5093380;27;20056;-90
2023/01/28 07:29:59;;;;;;;13.43;9.57;;;1.40;99.90;;;;;;5126715;27;20051;-92
2023/01/28 07:32:26;;;;;;;13.85;9.43;;;1.40;99.90;;;;;;5110053;27;20283;-92
2023/01/28 07:34:52;;;;;;;13.60;10.57;;;1.30;99.90;;;;;;5110104;27;20039;-92
2023/01/28 07:37:19;;;;;;;14.13;10.55;;;1.20;99.90;;;;;;5093282;27;20054;-91
2023/01/28 07:39:45;;;;;;;13.40;10.35;;;1.20;99.90;;;;;;5108903;27;20054;-92
2023/01/28 07:42:11;;;;;;;13.32;9.63;;;1.10;99.90;;;;;;5106186;27;20057;-91
2023/01/28 07:44:37;;;;;;;13.45;9.68;;;1.10;99.90;;;;;;5093656;27;20387;-91
2023/01/28 07:47:03;;;;;;;12.38;9.48;;;1.10;99.90;;;;;;5094731;27;20447;-91
2023/01/28 07:49:29;;;;;;;11.82;8.65;;;1.00;99.90;;;;;;5108704;27;20074;-92
2023/01/28 07:51:55;;;;;;;12.13;9.35;;;1.00;99.90;;;;;;5094781;27;20085;-91
2023/01/28 07:54:20;;;;;;;13.13;8.73;;;0.90;99.90;;;;;;5109415;27;20042;-91
2023/01/28 07:56:46;;;;;;;12.13;8.98;;;1.00;99.90;;;;;;5108141;27;20092;-91
2023/01/28 07:59:15;;;;;;;12.07;9.65;;;0.90;99.90;;;;;;5120877;27;20131;-91
2023/01/28 08:01:43;;;;;;;13.85;9.50;;;1.00;99.90;;;;;;5107761;27;20042;-92
2023/01/28 08:04:08;;;;;;;12.65;8.68;;;1.00;99.90;;;;;;5104327;27;20042;-92
2023/01/28 08:06:36;;;;;;;12.02;8.73;;;0.90;99.90;;;;;;5106287;27;20035;-92
2023/01/28 08:09:07;;;;;;;12.15;8.70;;;1.00;99.90;;;;;;5095356;27;20091;-92
2023/01/28 08:11:36;;;;;;;13.52;9.35;;;1.00;99.90;;;;;;5118448;27;20580;-92
2023/01/28 08:14:01;;;;;;;11.48;8.30;;;1.00;99.90;;;;;;5109235;27;20043;-91
2023/01/28 08:16:28;;;;;;;14.52;8.85;;;1.00;99.90;;;;;;5110538;27;20044;-91
2023/01/28 08:18:54;;;;;;;15.55;9.15;;;1.10;99.90;;;;;;5108591;27;20043;-91
2023/01/28 08:21:23;;;;;;;11.93;8.32;;;1.10;99.90;;;;;;5110091;27;20080;-92
2023/01/28 08:23:49;;;;;;;12.27;8.82;;;1.10;99.90;;;;;;5101401;27;20035;-92
2023/01/28 08:26:14;;;;;;;12.57;8.88;;;1.20;99.90;;;;;;5105492;27;20091;-92
2023/01/28 08:28:40;;;;;;;12.00;9.18;;;1.20;99.90;;;;;;5095259;27;20031;-92
2023/01/28 08:31:06;;;;;;;12.45;8.95;;;1.20;99.90;;;;;;5091554;27;20513;-91
2023/01/28 08:33:31;;;;;;;11.98;9.18;;;1.20;99.90;;;;;;5108932;27;20076;-92
2023/01/28 08:35:57;;;;;;;12.63;8.98;;;1.30;99.90;;;;;;5107876;27;20074;-92
2023/01/28 08:38:23;;;;;;;10.85;8.55;;;1.30;99.90;;;;;;5108063;27;20118;-91
2023/01/28 08:40:55;;;;;;;12.15;8.80;;;1.40;99.90;;;;;;5110059;27;20446;-92
2023/01/28 08:43:21;;;;;;;12.35;8.15;;;1.40;99.90;;;;;;5092142;27;20058;-92
2023/01/28 08:45:46;;;;;;;11.18;8.32;;;1.50;99.90;;;;;;5088900;27;20039;-92
2023/01/28 08:48:16;;;;;;;12.10;8.60;;;1.70;99.90;;;;;;5089830;27;20058;-92
2023/01/28 08:50:42;;;;;;;13.07;8.55;;;1.80;99.90;;;;;;5120073;27;20387;-91
2023/01/28 08:53:17;;;;;;;13.98;8.15;;;1.90;99.90;;;;;;5105518;27;20508;-92
2023/01/28 08:55:44;;;;;;;11.80;8.18;;;2.00;99.90;;;;;;5086435;27;20043;-92
2023/01/28 08:58:12;;;;;;;13.35;8.18;;;1.90;99.90;;;;;;5090842;27;20043;-91
2023/01/28 09:00:39;;;;;;;11.07;8.23;;;1.90;99.90;;;;;;5090671;27;20126;-92
2023/01/28 09:03:05;;;;;;;13.43;8.98;;;2.00;99.90;;;;;;5104701;27;20055;-91
2023/01/28 09:05:32;;;;;;;11.57;8.50;;;2.10;99.90;;;;;;5106377;27;20070;-91
2023/01/28 09:08:06;;;;;;;10.60;8.13;;;2.10;99.90;;;;;;5104876;27;20431;-92
2023/01/28 09:10:32;;;;;;;12.48;8.20;;;2.20;99.90;;;;;;5104451;27;20324;-91
2023/01/28 09:12:58;;;;;;;9.55;7.95;;;2.10;99.90;;;;;;5105890;27;20120;-91
2023/01/28 09:15:24;;;;;;;10.98;7.93;;;2.00;99.90;;;;;;5101595;27;20397;-92
2023/01/28 09:17:56;;;;;;;9.32;7.63;;;2.10;99.90;;;;;;5076477;27;20509;-91
2023/01/28 09:20:21;;;;;;;10.02;7.32;;;2.10;99.90;;;;;;5081145;27;20043;-92
2023/01/28 09:22:47;;;;;;;11.25;8.23;;;2.10;6.50;;;;;;5080177;27;20145;-92
2023/01/28 09:25:13;;;;;;;10.57;7.15;;;2.10;1.00;;;;;;5080968;27;20050;-92
2023/01/28 09:27:38;;;;;;;10.68;7.70;;;2.20;1.00;;;;;;5107254;27;20467;-92
2023/01/28 09:30:05;;;;;;;11.95;7.47;;;2.20;19.80;;;;;;5082451;27;20039;-92
2023/01/28 09:32:32;;;;;;;10.43;7.43;;;2.20;1.00;;;;;;5079124;27;20039;-92
2023/01/28 09:34:57;;;;;;;7.68;6.45;;;2.30;1.00;;;;;;5096694;27;20058;-92
2023/01/28 09:37:28;;;;;;;11.77;7.15;;;2.40;99.90;;;;;;5081185;27;20023;-92
2023/01/28 09:40:20;;;;;;;10.50;6.93;;;2.40;99.90;;;;;;5120205;27;20221;-92
2023/01/28 09:43:05;;;;;;;8.60;6.35;;;2.60;99.90;;;;;;5099416;27;20043;-91
2023/01/28 09:45:40;;;;;;;11.70;7.30;;;2.70;6.70;;;;;;5083499;28;20248;-92
2023/01/28 09:48:11;;;;;;;7.82;6.50;;;2.90;99.90;;;;;;5098261;27;20199;-91
2023/01/28 09:50:40;;;;;;;9.25;7.00;;;3.00;1.00;;;;;;5128847;27;20082;-92
2023/01/28 09:53:22;;;;;;;7.90;6.50;;;3.10;99.90;;;;;;5110046;27;20038;-92
2023/01/28 09:55:52;;;;;;;8.25;6.63;;;3.20;99.90;;;;;;5084188;27;20039;-92
2023/01/28 09:58:18;;;;;;;7.85;6.38;;;3.30;99.90;;;;;;5126833;27;20027;-93
2023/01/28 10:00:59;;;;;;;8.07;6.03;;;3.20;99.90;;;;;;5082404;27;20061;-91
2023/01/28 10:03:30;;;;;;;9.50;6.97;;;3.30;62.80;;;;;;5080972;27;20039;-91
2023/01/28 10:06:05;;;;;;;9.40;6.85;;;3.20;99.90;;;;;;5100931;27;20402;-92
2023/01/28 10:08:49;;;;;;;11.65;7.28;;;3.30;99.90;;;;;;5110277;27;20118;-92
2023/01/28 10:11:27;;;;;;;9.18;6.80;;;3.30;99.90;;;;;;5129658;27;20050;-91
2023/01/28 10:14:20;;;;;;;9.70;7.43;;;3.40;99.90;;;;;;5112612;27;20051;-92
2023/01/28 10:16:50;;;;;;;10.02;7.20;;;3.40;99.90;;;;;;5081634;27;20057;-92
2023/01/28 10:19:30;;;;;;;8.00;6.53;;;3.60;99.90;;;;;;5102599;27;20050;-92
2023/01/28 10:22:08;;;;;;;8.80;7.13;;;3.60;3.00;;;;;;5114853;27;20214;-92
2023/01/28 10:24:40;;;;;;;10.70;7.00;;;3.60;9.90;;;;;;5096270;28;20041;-92
2023/01/28 10:27:26;;;;;;;8.20;6.45;;;3.50;1.00;;;;;;5080355;28;20028;-92
2023/01/28 10:29:58;;;;;;;8.68;6.03;;;3.50;91.80;;;;;;5082093;27;20044;-92
2023/01/28 10:32:32;;;;;;;9.30;6.75;;;3.60;59.40;;;;;;5082954;27;20088;-92
2023/01/28 10:35:00;;;;;;;10.27;6.70;;;3.60;26.30;;;;;;5101234;27;20176;-91
2023/01/28 10:37:27;;;;;;;9.48;6.95;;;3.60;17.70;;;;;;5079557;28;20661;-92
2023/01/28 10:39:56;;;;;;;9.85;7.00;;;3.80;99.90;;;;;;5094522;28;20223;-91
2023/01/28 10:42:35;;;;;;;8.30;6.60;;;4.00;17.80;;;;;;5094900;28;20039;-92
2023/01/28 10:45:24;;;;;;;8.23;6.75;;;4.10;1.00;;;;;;5096197;28;20331;-91
2023/01/28 10:48:12;;;;;;;9.95;6.63;;;4.20;99.90;;;;;;5087823;28;20054;-92
2023/01/28 10:50:52;;;;;;;8.23;6.95;;;4.30;99.90;;;;;;5067490;27;20071;-92
2023/01/28 10:53:18;;;;;;;8.13;6.75;;;4.30;99.90;;;;;;5063821;28;20430;-91
2023/01/28 10:55:55;;;;;;;8.35;6.38;;;4.40;99.90;;;;;;5086644;27;20406;-92
2023/01/28 10:58:26;;;;;;;8.77;6.60;;;4.70;99.90;;;;;;5064939;28;20050;-92
2023/01/28 11:01:12;;;;;;;9.02;7.00;;;4.80;99.90;;;;;;5068133;27;20209;-91
2023/01/28 11:03:52;;;;;;;8.27;6.60;;;4.90;39.40;;;;;;5067695;27;20043;-91
2023/01/28 11:06:24;;;;;;;7.57;5.57;;;5.00;99.90;;;;;;5079061;28;20039;-91
2023/01/28 11:08:50;;;;;;;7.07;5.80;;;5.10;1.00;;;;;;5068775;28;20510;-91
2023/01/28 11:11:25;;;;;;;8.30;6.57;;;5.10;99.90;;;;;;5068998;27;20043;-92
2023/01/28 11:13:57;;;;;;;10.32;6.60;;;5.30;99.90;;;;;;5064068;28;20516;-92
2023/01/28 11:16:24;;;;;;;12.27;7.13;;;5.30;99.90;;;;;;5064794;27;20046;-91
2023/01/28 11:19:04;;;;;;;9.85;6.60;;;5.40;99.90;;;;;;5068804;28;20036;-92
2023/01/28 11:21:31;;;;;;;9.95;7.32;;;5.50;99.90;;;;;;5068118;27;20061;-91
2023/01/28 11:24:18;;;;;;;8.77;6.97;;;5.50;99.90;;;;;;5082769;28;20039;-91
2023/01/28 11:26:51;;;;;;;8.38;6.35;;;5.50;1.00;;;;;;5063789;28;20272;-92
2023/01/28 11:29:27;;;;;;;9.05;6.78;;;5.40;99.90;;;;;;5082492;28;20040;-92
2023/01/28 11:31:52;;;;;;;8.18;6.93;;;5.30;99.90;;;;;;5095369;27;20043;-92
2023/01/28 11:34:18;;;;;;;9.90;7.25;;;5.40;1.00;;;;;;5081820;27;20043;-91
2023/01/28 11:36:53;;;;;;;10.80;6.82;;;5.30;1.00;;;;;;5065907;27;20075;-91
2023/01/28 11:39:21;;;;;;;;;;;5.20;99.90;;;;;;5084567;28;20416;-91
2023/01/28 11:41:47;;;;;;;8.63;6.90;;;5.30;1.00;;;;;;5065868;28;19936;-91
2023/01/28 11:44:23;;;;;;;10.38;7.88;;;5.30;99.90;;;;;;5099588;27;20167;-92
2023/01/28 11:47:10;;;;;;;11.07;7.45;;;5.50;99.90;;;;;;5081681;28;20059;-91
2023/01/28 11:49:58;;;;;;;12.05;7.55;;;5.20;1.00;;;;;;5084170;28;20031;-91
2023/01/28 11:52:42;;;;;;;9.80;7.63;;;5.00;1.00;;;;;;5065798;28;20060;-92
2023/01/28 11:55:41;;;;;;;9.95;7.43;;;5.10;1.00;;;;;;5069154;28;20040;-92
2023/01/28 11:59:01;;;;;;;8.93;7.20;;;5.20;99.90;;;;;;5081998;28;20563;-91
2023/01/28 12:01:37;;;;;;;8.63;6.20;;;5.20;99.90;;;;;;5002627;28;20049;-92
2023/01/28 12:04:36;;;;;;;9.50;6.38;;;5.20;95.20;;;;;;5057365;27;20487;-92
2023/01/28 12:07:22;;;;;;;10.57;6.63;;;5.10;99.90;;;;;;5082561;28;20406;-92
2023/01/28 12:09:59;;;;;;;10.60;6.57;;;5.20;1.00;;;;;;5065815;27;20050;-91
2023/01/28 12:12:57;;;;;;;8.07;6.45;;;5.20;1.00;;;;;;5062669;28;20368;-92
2023/01/28 12:15:47;;;;;;;8.30;6.63;;;5.20;99.90;;;;;;5065471;28;20040;-92
2023/01/28 12:18:39;;;;;;;10.00;7.78;;;5.30;7.60;;;;;;5065357;27;20225;-91
2023/01/28 12:21:29;;;;;;;9.95;7.75;;;5.20;99.90;;;;;;5065748;28;20082;-91
2023/01/28 12:24:05;;;;;;;9.32;7.22;;;5.10;1.00;;;;;;5081112;28;20039;-92
2023/01/28 12:26:48;;;;;;;10.65;8.27;;;4.90;1.00;;;;;;5065374;27;20402;-91
2023/01/28 12:29:35;;;;;;;10.93;8.23;;;5.00;99.90;;;;;;5064877;27;20049;-90
2023/01/28 12:32:19;;;;;;;10.70;7.90;;;5.10;99.90;;;;;;5080590;28;20047;-91
2023/01/28 12:35:02;;;;;;;10.35;7.93;;;5.30;99.90;;;;;;5065056;27;20445;-91
2023/01/28 12:37:34;;;;;;;9.65;7.78;;;5.30;59.60;;;;;;5065851;27;20099;-91
2023/01/28 12:40:19;;;;;;;11.10;7.35;;;5.30;1.00;;;;;;5079620;27;20052;-91
2023/01/28 12:42:55;;;;;;;10.00;7.43;;;5.30;1.00;;;;;;5068504;28;20039;-91
2023/01/28 12:45:37;;;;;;;11.98;7.90;;;5.30;99.90;;;;;;5096407;27;20177;-91
2023/01/28 12:48:17;;;;;;;11.35;8.00;;;5.30;1.00;;;;;;5081004;27;20288;-91
2023/01/28 12:50:53;;;;;;;9.90;7.47;;;5.40;82.30;;;;;;5083439;27;20027;-91
2023/01/28 12:53:55;;;;;;;10.93;8.05;;;5.30;32.90;;;;;;5083036;28;20027;-91
2023/01/28 12:56:36;;;;;;;10.85;8.02;;;5.10;99.90;;;;;;5054130;28;20631;-91
2023/01/28 12:59:24;;;;;;;10.43;7.82;;;5.10;99.90;;;;;;5066765;28;20044;-90
2023/01/28 13:02:12;;;;;;;12.50;8.27;;;5.30;99.90;;;;;;5098841;27;20036;-91
2023/01/28 13:04:45;;;;;;;11.30;8.45;;;5.30;99.90;;;;;;5061579;28;20050;-90
2023/01/28 13:07:21;;;;;;;10.63;8.40;;;5.30;99.90;;;;;;5110887;27;20174;-91
2023/01/28 13:10:25;;;;;;;12.00;8.38;;;5.30;99.90;;;;;;5069764;27;20138;-91
2023/01/28 13:12:52;;;;;;;14.27;8.63;;;5.40;99.90;;;;;;5076018;28;20811;-91
2023/01/28 13:15:19;;;;;;;9.65;7.28;;;5.40;99.90;;;;;;5066520;28;20039;-91
2023/01/28 13:17:55;;;;;;;11.07;8.45;;;5.20;72.30;;;;;;5065309;27;20650;-91
2023/01/28 13:20:47;;;;;;;12.27;8.40;;;5.20;99.90;;;;;;5094187;27;20545;-91
2023/01/28 13:23:40;;;;;;;13.63;8.70;;;5.40;99.90;;;;;;5059699;28;20046;-91
2023/01/28 13:26:19;;;;;;;10.57;7.60;;;5.40;99.90;;;;;;5082185;27;20045;-91
2023/01/28 13:29:07;;;;;;;13.43;7.53;;;5.40;99.90;;;;;;5111851;27;20138;-92
2023/01/28 13:31:42;;;;;;;12.60;8.20;;;5.20;91.70;;;;;;5062447;28;20118;-91
2023/01/28 13:34:28;;;;;;;11.20;8.38;;;5.20;99.90;;;;;;5084885;28;20410;-91
2023/01/28 13:36:56;;;;;;;11.00;8.50;;;5.20;99.90;;;;;;5068290;28;20043;-91
2023/01/28 13:39:25;;;;;;;11.75;8.40;;;5.30;99.90;;;;;;5065743;28;20047;-91
2023/01/28 13:42:08;;;;;;;10.88;7.55;;;5.50;99.90;;;;;;5063033;28;20122;-91
2023/01/28 13:44:36;;;;;;;10.20;8.10;;;5.40;99.90;;;;;;5080832;28;20371;-92